sensor_id;sensor_type;location;lat;lon;timestamp;P1;durP1;ratioP1;P2;durP2;ratioP2
33403;SDS011;19751;40.274;18.268;2023-04-30T00:01:52;2.15;;;1.52;;
33403;SDS011;19751;40.274;18.268;2023-04-30T00:04:18;4.60;;;1.83;;
33403;SDS011;19751;40.274;18.268;2023-04-30T00:06:43;2.15;;;1.60;;
33403;SDS011;19751;40.274;18.268;2023-04-30T00:09:08;2.05;;;1.77;;
33403;SDS011;19751;40.274;18.268;2023-04-30T00:11:34;2.53;;;2.10;;
33403;SDS011;19751;40.274;18.268;2023-04-30T00:14:00;3.17;;;1.88;;
33403;SDS011;19751;40.274;18.268;2023-04-30T00:16:25;2.47;;;1.50;;
33403;SDS011;19751;40.274;18.268;2023-04-30T00:18:51;2.45;;;1.27;;
33403;SDS011;19751;40.274;18.268;2023-04-30T00:21:16;3.30;;;1.45;;
33403;SDS011;19751;40.274;18.268;2023-04-30T00:23:42;2.67;;;1.45;;
33403;SDS011;19751;40.274;18.268;2023-04-30T00:26:07;2.03;;;1.38;;
33403;SDS011;19751;40.274;18.268;2023-04-30T00:28:33;1.95;;;1.17;;
33403;SDS011;19751;40.274;18.268;2023-04-30T00:30:58;1.00;;;0.90;;
33403;SDS011;19751;40.274;18.268;2023-04-30T00:33:24;2.72;;;1.05;;
33403;SDS011;19751;40.274;18.268;2023-04-30T00:35:49;1.42;;;1.05;;
33403;SDS011;19751;40.274;18.268;2023-04-30T00:38:15;1.73;;;1.10;;
33403;SDS011;19751;40.274;18.268;2023-04-30T00:40:40;2.65;;;1.40;;
33403;SDS011;19751;40.274;18.268;2023-04-30T00:43:07;1.67;;;1.15;;
33403;SDS011;19751;40.274;18.268;2023-04-30T00:45:32;3.60;;;1.33;;
33403;SDS011;19751;40.274;18.268;2023-04-30T00:47:58;4.28;;;1.45;;
33403;SDS011;19751;40.274;18.268;2023-04-30T00:50:23;2.45;;;1.42;;
33403;SDS011;19751;40.274;18.268;2023-04-30T00:52:49;2.47;;;1.30;;
33403;SDS011;19751;40.274;18.268;2023-04-30T00:55:15;2.70;;;1.27;;
33403;SDS011;19751;40.274;18.268;2023-04-30T00:57:41;3.17;;;1.30;;
33403;SDS011;19751;40.274;18.268;2023-04-30T01:00:07;2.33;;;1.65;;
33403;SDS011;19751;40.274;18.268;2023-04-30T01:02:36;2.17;;;1.30;;
33403;SDS011;19751;40.274;18.268;2023-04-30T01:05:02;3.08;;;1.42;;
33403;SDS011;19751;40.274;18.268;2023-04-30T01:07:28;2.10;;;1.27;;
33403;SDS011;19751;40.274;18.268;2023-04-30T01:09:55;1.83;;;1.23;;
33403;SDS011;19751;40.274;18.268;2023-04-30T01:12:37;2.33;;;2.00;;
33403;SDS011;19751;40.274;18.268;2023-04-30T01:20:30;2.50;;;1.15;;
33403;SDS011;19751;40.274;18.268;2023-04-30T01:23:17;3.97;;;1.70;;
33403;SDS011;19751;40.274;18.268;2023-04-30T01:28:35;1.67;;;1.40;;
33403;SDS011;19751;40.274;18.268;2023-04-30T01:31:09;3.97;;;2.72;;
33403;SDS011;19751;40.274;18.268;2023-04-30T01:33:36;4.75;;;1.63;;
33403;SDS011;19751;40.274;18.268;2023-04-30T01:42:09;2.90;;;1.83;;
33403;SDS011;19751;40.274;18.268;2023-04-30T01:47:48;2.72;;;1.63;;
33403;SDS011;19751;40.274;18.268;2023-04-30T01:50:19;3.30;;;1.48;;
33403;SDS011;19751;40.274;18.268;2023-04-30T01:52:50;1.77;;;1.35;;
33403;SDS011;19751;40.274;18.268;2023-04-30T01:58:02;2.60;;;1.63;;
33403;SDS011;19751;40.274;18.268;2023-04-30T02:00:30;2.13;;;1.50;;
33403;SDS011;19751;40.274;18.268;2023-04-30T02:02:58;1.83;;;1.30;;
33403;SDS011;19751;40.274;18.268;2023-04-30T02:05:23;4.75;;;1.70;;
33403;SDS011;19751;40.274;18.268;2023-04-30T02:07:50;3.90;;;1.50;;
33403;SDS011;19751;40.274;18.268;2023-04-30T02:10:20;4.10;;;2.22;;
33403;SDS011;19751;40.274;18.268;2023-04-30T02:12:50;2.50;;;1.25;;
33403;SDS011;19751;40.274;18.268;2023-04-30T02:15:16;3.10;;;1.77;;
33403;SDS011;19751;40.274;18.268;2023-04-30T02:17:41;2.90;;;1.15;;
33403;SDS011;19751;40.274;18.268;2023-04-30T02:20:07;4.05;;;1.45;;
33403;SDS011;19751;40.274;18.268;2023-04-30T02:22:34;3.25;;;1.52;;
33403;SDS011;19751;40.274;18.268;2023-04-30T02:25:00;1.83;;;1.42;;
33403;SDS011;19751;40.274;18.268;2023-04-30T02:27:25;2.67;;;1.52;;
33403;SDS011;19751;40.274;18.268;2023-04-30T02:29:52;2.40;;;1.55;;
33403;SDS011;19751;40.274;18.268;2023-04-30T02:32:18;3.00;;;2.33;;
33403;SDS011;19751;40.274;18.268;2023-04-30T02:34:44;2.45;;;1.90;;
33403;SDS011;19751;40.274;18.268;2023-04-30T02:37:09;2.97;;;1.50;;
33403;SDS011;19751;40.274;18.268;2023-04-30T02:39:35;5.65;;;1.65;;
33403;SDS011;19751;40.274;18.268;2023-04-30T02:42:00;3.15;;;1.65;;
33403;SDS011;19751;40.274;18.268;2023-04-30T02:44:27;5.22;;;1.50;;
33403;SDS011;19751;40.274;18.268;2023-04-30T02:46:53;3.13;;;1.90;;
33403;SDS011;19751;40.274;18.268;2023-04-30T02:49:18;3.55;;;1.65;;
33403;SDS011;19751;40.274;18.268;2023-04-30T02:51:44;3.05;;;1.90;;
33403;SDS011;19751;40.274;18.268;2023-04-30T02:54:10;6.00;;;1.73;;
33403;SDS011;19751;40.274;18.268;2023-04-30T02:56:35;3.30;;;1.63;;
33403;SDS011;19751;40.274;18.268;2023-04-30T02:59:02;4.80;;;1.92;;
33403;SDS011;19751;40.274;18.268;2023-04-30T03:01:28;2.08;;;1.48;;
33403;SDS011;19751;40.274;18.268;2023-04-30T03:03:53;2.58;;;1.92;;
33403;SDS011;19751;40.274;18.268;2023-04-30T03:06:19;1.92;;;1.73;;
33403;SDS011;19751;40.274;18.268;2023-04-30T03:08:45;2.38;;;1.73;;
33403;SDS011;19751;40.274;18.268;2023-04-30T03:11:10;4.95;;;1.98;;
33403;SDS011;19751;40.274;18.268;2023-04-30T03:13:35;3.55;;;1.40;;
33403;SDS011;19751;40.274;18.268;2023-04-30T03:16:02;2.55;;;1.50;;
33403;SDS011;19751;40.274;18.268;2023-04-30T03:18:31;5.15;;;1.98;;
33403;SDS011;19751;40.274;18.268;2023-04-30T03:20:57;5.45;;;2.03;;
33403;SDS011;19751;40.274;18.268;2023-04-30T03:23:22;6.55;;;2.17;;
33403;SDS011;19751;40.274;18.268;2023-04-30T03:25:48;5.80;;;1.50;;
33403;SDS011;19751;40.274;18.268;2023-04-30T03:28:14;2.95;;;1.88;;
33403;SDS011;19751;40.274;18.268;2023-04-30T03:30:40;3.10;;;2.22;;
33403;SDS011;19751;40.274;18.268;2023-04-30T03:33:06;7.05;;;2.95;;
33403;SDS011;19751;40.274;18.268;2023-04-30T03:35:31;3.78;;;2.20;;
33403;SDS011;19751;40.274;18.268;2023-04-30T03:37:58;4.30;;;2.10;;
33403;SDS011;19751;40.274;18.268;2023-04-30T03:40:25;1.98;;;1.55;;
33403;SDS011;19751;40.274;18.268;2023-04-30T03:42:50;6.63;;;2.60;;
33403;SDS011;19751;40.274;18.268;2023-04-30T03:45:16;3.58;;;1.95;;
33403;SDS011;19751;40.274;18.268;2023-04-30T03:47:42;3.55;;;1.90;;
33403;SDS011;19751;40.274;18.268;2023-04-30T03:50:08;5.65;;;2.45;;
33403;SDS011;19751;40.274;18.268;2023-04-30T03:52:34;4.93;;;2.25;;
33403;SDS011;19751;40.274;18.268;2023-04-30T03:55:01;5.28;;;2.67;;
33403;SDS011;19751;40.274;18.268;2023-04-30T03:57:27;2.67;;;1.88;;
33403;SDS011;19751;40.274;18.268;2023-04-30T03:59:53;3.65;;;1.92;;
33403;SDS011;19751;40.274;18.268;2023-04-30T04:02:18;5.30;;;2.08;;
33403;SDS011;19751;40.274;18.268;2023-04-30T04:04:45;2.70;;;1.85;;
33403;SDS011;19751;40.274;18.268;2023-04-30T04:07:11;2.35;;;1.90;;
33403;SDS011;19751;40.274;18.268;2023-04-30T04:09:37;5.40;;;2.10;;
33403;SDS011;19751;40.274;18.268;2023-04-30T04:12:02;3.22;;;2.03;;
33403;SDS011;19751;40.274;18.268;2023-04-30T04:14:28;8.43;;;2.28;;
33403;SDS011;19751;40.274;18.268;2023-04-30T04:16:54;3.38;;;1.67;;
33403;SDS011;19751;40.274;18.268;2023-04-30T04:19:22;4.30;;;2.35;;
33403;SDS011;19751;40.274;18.268;2023-04-30T04:21:47;6.32;;;2.70;;
33403;SDS011;19751;40.274;18.268;2023-04-30T04:24:13;8.32;;;3.35;;
33403;SDS011;19751;40.274;18.268;2023-04-30T04:26:39;3.95;;;2.50;;
33403;SDS011;19751;40.274;18.268;2023-04-30T04:29:05;2.95;;;2.30;;
33403;SDS011;19751;40.274;18.268;2023-04-30T04:31:33;5.43;;;2.35;;
33403;SDS011;19751;40.274;18.268;2023-04-30T04:33:59;5.78;;;2.05;;
33403;SDS011;19751;40.274;18.268;2023-04-30T04:36:26;6.35;;;2.30;;
33403;SDS011;19751;40.274;18.268;2023-04-30T04:38:53;6.32;;;2.20;;
33403;SDS011;19751;40.274;18.268;2023-04-30T04:41:19;4.22;;;2.22;;
33403;SDS011;19751;40.274;18.268;2023-04-30T04:43:45;7.28;;;2.88;;
33403;SDS011;19751;40.274;18.268;2023-04-30T04:46:11;2.25;;;1.98;;
33403;SDS011;19751;40.274;18.268;2023-04-30T04:48:40;2.60;;;1.88;;
33403;SDS011;19751;40.274;18.268;2023-04-30T04:51:06;5.22;;;2.45;;
33403;SDS011;19751;40.274;18.268;2023-04-30T04:53:32;5.85;;;2.60;;
33403;SDS011;19751;40.274;18.268;2023-04-30T04:55:57;2.83;;;2.10;;
33403;SDS011;19751;40.274;18.268;2023-04-30T04:58:22;3.33;;;2.50;;
33403;SDS011;19751;40.274;18.268;2023-04-30T05:00:48;4.95;;;2.20;;
33403;SDS011;19751;40.274;18.268;2023-04-30T05:03:13;7.22;;;2.80;;
33403;SDS011;19751;40.274;18.268;2023-04-30T05:05:40;3.85;;;2.03;;
33403;SDS011;19751;40.274;18.268;2023-04-30T05:08:05;5.00;;;2.40;;
33403;SDS011;19751;40.274;18.268;2023-04-30T05:10:31;3.22;;;2.30;;
33403;SDS011;19751;40.274;18.268;2023-04-30T05:12:56;2.65;;;2.40;;
33403;SDS011;19751;40.274;18.268;2023-04-30T05:15:22;4.30;;;2.63;;
33403;SDS011;19751;40.274;18.268;2023-04-30T05:17:48;3.70;;;2.97;;
33403;SDS011;19751;40.274;18.268;2023-04-30T05:20:13;5.57;;;3.05;;
33403;SDS011;19751;40.274;18.268;2023-04-30T05:22:39;4.90;;;2.85;;
33403;SDS011;19751;40.274;18.268;2023-04-30T05:25:04;5.10;;;2.58;;
33403;SDS011;19751;40.274;18.268;2023-04-30T05:27:30;5.63;;;2.67;;
33403;SDS011;19751;40.274;18.268;2023-04-30T05:29:56;6.85;;;3.15;;
33403;SDS011;19751;40.274;18.268;2023-04-30T05:32:22;4.45;;;2.25;;
33403;SDS011;19751;40.274;18.268;2023-04-30T05:34:47;6.25;;;2.90;;
33403;SDS011;19751;40.274;18.268;2023-04-30T05:37:13;4.20;;;2.72;;
33403;SDS011;19751;40.274;18.268;2023-04-30T05:39:40;6.15;;;2.95;;
33403;SDS011;19751;40.274;18.268;2023-04-30T05:42:06;6.03;;;3.33;;
33403;SDS011;19751;40.274;18.268;2023-04-30T05:44:31;3.40;;;2.60;;
33403;SDS011;19751;40.274;18.268;2023-04-30T05:46:57;7.07;;;2.60;;
33403;SDS011;19751;40.274;18.268;2023-04-30T05:49:22;4.20;;;2.40;;
33403;SDS011;19751;40.274;18.268;2023-04-30T05:51:48;8.00;;;3.95;;
33403;SDS011;19751;40.274;18.268;2023-04-30T05:54:13;5.38;;;3.55;;
33403;SDS011;19751;40.274;18.268;2023-04-30T05:56:39;8.10;;;3.90;;
33403;SDS011;19751;40.274;18.268;2023-04-30T05:59:05;8.07;;;4.60;;
33403;SDS011;19751;40.274;18.268;2023-04-30T06:01:30;6.88;;;4.18;;
33403;SDS011;19751;40.274;18.268;2023-04-30T06:03:56;8.40;;;3.72;;
33403;SDS011;19751;40.274;18.268;2023-04-30T06:06:23;6.78;;;3.75;;
33403;SDS011;19751;40.274;18.268;2023-04-30T06:08:49;3.65;;;2.30;;
33403;SDS011;19751;40.274;18.268;2023-04-30T06:11:14;6.85;;;3.88;;
33403;SDS011;19751;40.274;18.268;2023-04-30T06:13:40;5.13;;;3.47;;
33403;SDS011;19751;40.274;18.268;2023-04-30T06:16:06;3.50;;;3.00;;
33403;SDS011;19751;40.274;18.268;2023-04-30T06:18:32;5.13;;;3.28;;
33403;SDS011;19751;40.274;18.268;2023-04-30T06:20:57;4.18;;;3.08;;
33403;SDS011;19751;40.274;18.268;2023-04-30T06:23:23;3.25;;;2.65;;
33403;SDS011;19751;40.274;18.268;2023-04-30T06:25:48;3.35;;;2.55;;
33403;SDS011;19751;40.274;18.268;2023-04-30T06:28:14;5.95;;;3.25;;
33403;SDS011;19751;40.274;18.268;2023-04-30T06:30:40;6.43;;;2.42;;
33403;SDS011;19751;40.274;18.268;2023-04-30T06:33:05;3.90;;;2.63;;
33403;SDS011;19751;40.274;18.268;2023-04-30T06:35:31;4.60;;;3.30;;
33403;SDS011;19751;40.274;18.268;2023-04-30T06:37:57;5.22;;;3.13;;
33403;SDS011;19751;40.274;18.268;2023-04-30T06:40:22;4.00;;;2.90;;
33403;SDS011;19751;40.274;18.268;2023-04-30T06:42:48;4.28;;;2.92;;
33403;SDS011;19751;40.274;18.268;2023-04-30T06:45:13;4.70;;;3.28;;
33403;SDS011;19751;40.274;18.268;2023-04-30T06:47:39;5.72;;;2.92;;
33403;SDS011;19751;40.274;18.268;2023-04-30T06:50:06;7.28;;;2.90;;
33403;SDS011;19751;40.274;18.268;2023-04-30T06:52:33;8.77;;;2.47;;
33403;SDS011;19751;40.274;18.268;2023-04-30T06:54:58;3.90;;;2.63;;
33403;SDS011;19751;40.274;18.268;2023-04-30T06:57:25;2.53;;;2.33;;
33403;SDS011;19751;40.274;18.268;2023-04-30T06:59:51;4.78;;;2.40;;
33403;SDS011;19751;40.274;18.268;2023-04-30T07:02:17;4.13;;;2.55;;
33403;SDS011;19751;40.274;18.268;2023-04-30T07:04:43;4.05;;;2.03;;
33403;SDS011;19751;40.274;18.268;2023-04-30T07:07:10;3.88;;;2.60;;
33403;SDS011;19751;40.274;18.268;2023-04-30T07:09:36;5.05;;;2.40;;
33403;SDS011;19751;40.274;18.268;2023-04-30T07:12:02;4.18;;;2.30;;
33403;SDS011;19751;40.274;18.268;2023-04-30T07:14:28;4.82;;;2.00;;
33403;SDS011;19751;40.274;18.268;2023-04-30T07:16:53;2.70;;;2.00;;
33403;SDS011;19751;40.274;18.268;2023-04-30T07:19:22;4.65;;;2.65;;
33403;SDS011;19751;40.274;18.268;2023-04-30T07:21:55;4.90;;;2.20;;
33403;SDS011;19751;40.274;18.268;2023-04-30T07:24:20;5.90;;;1.80;;
33403;SDS011;19751;40.274;18.268;2023-04-30T07:26:46;3.45;;;2.00;;
33403;SDS011;19751;40.274;18.268;2023-04-30T07:29:11;1.70;;;1.60;;
33403;SDS011;19751;40.274;18.268;2023-04-30T07:31:37;1.63;;;1.52;;
33403;SDS011;19751;40.274;18.268;2023-04-30T07:34:02;2.53;;;1.98;;
33403;SDS011;19751;40.274;18.268;2023-04-30T07:36:28;3.88;;;1.33;;
33403;SDS011;19751;40.274;18.268;2023-04-30T07:38:53;3.80;;;1.70;;
33403;SDS011;19751;40.274;18.268;2023-04-30T07:41:20;4.80;;;1.88;;
33403;SDS011;19751;40.274;18.268;2023-04-30T07:43:46;2.92;;;1.42;;
33403;SDS011;19751;40.274;18.268;2023-04-30T07:46:11;1.70;;;1.20;;
33403;SDS011;19751;40.274;18.268;2023-04-30T07:48:37;4.47;;;1.92;;
33403;SDS011;19751;40.274;18.268;2023-04-30T07:51:03;1.98;;;1.60;;
33403;SDS011;19751;40.274;18.268;2023-04-30T07:53:29;2.08;;;1.55;;
33403;SDS011;19751;40.274;18.268;2023-04-30T07:55:55;3.85;;;2.35;;
33403;SDS011;19751;40.274;18.268;2023-04-30T07:58:20;2.33;;;1.98;;
33403;SDS011;19751;40.274;18.268;2023-04-30T08:00:46;4.20;;;1.90;;
33403;SDS011;19751;40.274;18.268;2023-04-30T08:03:11;5.72;;;1.90;;
33403;SDS011;19751;40.274;18.268;2023-04-30T08:05:37;3.13;;;2.40;;
33403;SDS011;19751;40.274;18.268;2023-04-30T08:08:03;2.88;;;1.75;;
33403;SDS011;19751;40.274;18.268;2023-04-30T08:10:29;3.97;;;2.40;;
33403;SDS011;19751;40.274;18.268;2023-04-30T08:12:56;8.60;;;4.15;;
33403;SDS011;19751;40.274;18.268;2023-04-30T08:15:21;4.15;;;2.85;;
33403;SDS011;19751;40.274;18.268;2023-04-30T08:17:51;6.25;;;2.55;;
33403;SDS011;19751;40.274;18.268;2023-04-30T08:20:17;2.92;;;1.92;;
33403;SDS011;19751;40.274;18.268;2023-04-30T08:22:43;2.05;;;1.85;;
33403;SDS011;19751;40.274;18.268;2023-04-30T08:25:09;2.70;;;1.63;;
33403;SDS011;19751;40.274;18.268;2023-04-30T08:27:39;2.78;;;1.80;;
33403;SDS011;19751;40.274;18.268;2023-04-30T08:30:05;3.42;;;1.50;;
33403;SDS011;19751;40.274;18.268;2023-04-30T08:32:34;5.40;;;2.70;;
33403;SDS011;19751;40.274;18.268;2023-04-30T08:35:01;5.38;;;2.30;;
33403;SDS011;19751;40.274;18.268;2023-04-30T08:37:30;3.20;;;2.03;;
33403;SDS011;19751;40.274;18.268;2023-04-30T08:39:56;1.92;;;1.55;;
33403;SDS011;19751;40.274;18.268;2023-04-30T08:42:24;5.13;;;2.17;;
33403;SDS011;19751;40.274;18.268;2023-04-30T08:44:50;3.90;;;2.28;;
33403;SDS011;19751;40.274;18.268;2023-04-30T08:47:16;1.92;;;1.73;;
33403;SDS011;19751;40.274;18.268;2023-04-30T08:49:42;4.32;;;2.75;;
33403;SDS011;19751;40.274;18.268;2023-04-30T08:52:10;5.18;;;1.90;;
33403;SDS011;19751;40.274;18.268;2023-04-30T08:54:35;4.88;;;2.17;;
33403;SDS011;19751;40.274;18.268;2023-04-30T08:57:01;8.27;;;2.53;;
33403;SDS011;19751;40.274;18.268;2023-04-30T08:59:28;4.40;;;2.42;;
33403;SDS011;19751;40.274;18.268;2023-04-30T09:01:54;2.63;;;2.15;;
33403;SDS011;19751;40.274;18.268;2023-04-30T09:04:20;6.28;;;2.17;;
33403;SDS011;19751;40.274;18.268;2023-04-30T09:06:46;5.03;;;2.28;;
33403;SDS011;19751;40.274;18.268;2023-04-30T09:09:12;3.75;;;2.28;;
33403;SDS011;19751;40.274;18.268;2023-04-30T09:11:39;3.05;;;2.13;;
33403;SDS011;19751;40.274;18.268;2023-04-30T09:14:05;5.55;;;3.28;;
33403;SDS011;19751;40.274;18.268;2023-04-30T09:16:50;5.07;;;3.17;;
33403;SDS011;19751;40.274;18.268;2023-04-30T09:19:26;6.15;;;2.42;;
33403;SDS011;19751;40.274;18.268;2023-04-30T09:21:53;4.55;;;2.38;;
33403;SDS011;19751;40.274;18.268;2023-04-30T09:24:19;3.25;;;1.95;;
33403;SDS011;19751;40.274;18.268;2023-04-30T09:26:45;4.55;;;1.65;;
33403;SDS011;19751;40.274;18.268;2023-04-30T09:29:11;4.88;;;1.88;;
33403;SDS011;19751;40.274;18.268;2023-04-30T09:31:38;7.45;;;1.48;;
33403;SDS011;19751;40.274;18.268;2023-04-30T09:34:06;5.35;;;1.13;;
33403;SDS011;19751;40.274;18.268;2023-04-30T09:36:32;3.40;;;1.50;;
33403;SDS011;19751;40.274;18.268;2023-04-30T09:39:10;2.35;;;1.15;;
33403;SDS011;19751;40.274;18.268;2023-04-30T09:41:38;3.80;;;1.95;;
33403;SDS011;19751;40.274;18.268;2023-04-30T09:44:03;5.10;;;2.25;;
33403;SDS011;19751;40.274;18.268;2023-04-30T09:46:30;2.40;;;1.80;;
33403;SDS011;19751;40.274;18.268;2023-04-30T09:48:58;3.08;;;1.85;;
33403;SDS011;19751;40.274;18.268;2023-04-30T09:51:24;7.95;;;1.83;;
33403;SDS011;19751;40.274;18.268;2023-04-30T09:53:51;3.90;;;1.52;;
33403;SDS011;19751;40.274;18.268;2023-04-30T09:56:24;3.13;;;1.50;;
33403;SDS011;19751;40.274;18.268;2023-04-30T09:58:54;2.83;;;1.42;;
33403;SDS011;19751;40.274;18.268;2023-04-30T10:01:21;1.92;;;1.35;;
33403;SDS011;19751;40.274;18.268;2023-04-30T10:03:51;1.30;;;1.20;;
33403;SDS011;19751;40.274;18.268;2023-04-30T10:06:17;2.38;;;1.25;;
33403;SDS011;19751;40.274;18.268;2023-04-30T10:08:48;3.20;;;1.60;;
33403;SDS011;19751;40.274;18.268;2023-04-30T10:11:18;3.33;;;1.40;;
33403;SDS011;19751;40.274;18.268;2023-04-30T10:19:21;1.27;;;0.90;;
33403;SDS011;19751;40.274;18.268;2023-04-30T10:21:48;2.05;;;0.95;;
33403;SDS011;19751;40.274;18.268;2023-04-30T10:24:15;2.28;;;1.13;;
33403;SDS011;19751;40.274;18.268;2023-04-30T10:26:44;2.20;;;1.25;;
33403;SDS011;19751;40.274;18.268;2023-04-30T10:29:11;2.78;;;1.63;;
33403;SDS011;19751;40.274;18.268;2023-04-30T10:31:39;5.38;;;1.58;;
33403;SDS011;19751;40.274;18.268;2023-04-30T10:37:27;2.13;;;1.08;;
33403;SDS011;19751;40.274;18.268;2023-04-30T10:40:03;2.15;;;2.03;;
33403;SDS011;19751;40.274;18.268;2023-04-30T10:42:30;3.15;;;1.58;;
33403;SDS011;19751;40.274;18.268;2023-04-30T10:44:58;2.15;;;1.52;;
33403;SDS011;19751;40.274;18.268;2023-04-30T10:47:29;2.38;;;1.45;;
33403;SDS011;19751;40.274;18.268;2023-04-30T10:52:29;3.10;;;1.50;;
33403;SDS011;19751;40.274;18.268;2023-04-30T10:54:55;2.80;;;1.60;;
33403;SDS011;19751;40.274;18.268;2023-04-30T10:57:21;1.42;;;1.25;;
33403;SDS011;19751;40.274;18.268;2023-04-30T11:00:17;2.65;;;1.70;;
33403;SDS011;19751;40.274;18.268;2023-04-30T11:02:48;3.35;;;1.70;;
33403;SDS011;19751;40.274;18.268;2023-04-30T11:05:23;2.03;;;1.50;;
33403;SDS011;19751;40.274;18.268;2023-04-30T11:07:59;2.15;;;1.45;;
33403;SDS011;19751;40.274;18.268;2023-04-30T11:10:26;4.45;;;1.50;;
33403;SDS011;19751;40.274;18.268;2023-04-30T11:12:56;3.17;;;1.40;;
33403;SDS011;19751;40.274;18.268;2023-04-30T11:15:25;1.65;;;1.30;;
33403;SDS011;19751;40.274;18.268;2023-04-30T11:17:55;2.95;;;1.40;;
33403;SDS011;19751;40.274;18.268;2023-04-30T11:20:23;3.30;;;1.70;;
33403;SDS011;19751;40.274;18.268;2023-04-30T11:25:43;5.55;;;1.67;;
33403;SDS011;19751;40.274;18.268;2023-04-30T11:28:15;4.80;;;1.70;;
33403;SDS011;19751;40.274;18.268;2023-04-30T11:30:52;3.25;;;1.70;;
33403;SDS011;19751;40.274;18.268;2023-04-30T11:33:19;3.78;;;1.80;;
33403;SDS011;19751;40.274;18.268;2023-04-30T11:35:46;1.42;;;1.30;;
33403;SDS011;19751;40.274;18.268;2023-04-30T11:38:16;3.22;;;1.75;;
33403;SDS011;19751;40.274;18.268;2023-04-30T11:40:47;2.25;;;1.50;;
33403;SDS011;19751;40.274;18.268;2023-04-30T11:43:20;3.15;;;2.30;;
33403;SDS011;19751;40.274;18.268;2023-04-30T11:45:57;4.35;;;1.70;;
33403;SDS011;19751;40.274;18.268;2023-04-30T11:48:44;3.05;;;1.75;;
33403;SDS011;19751;40.274;18.268;2023-04-30T11:51:18;6.75;;;1.90;;
33403;SDS011;19751;40.274;18.268;2023-04-30T11:53:51;4.25;;;1.48;;
33403;SDS011;19751;40.274;18.268;2023-04-30T11:56:20;4.72;;;1.45;;
33403;SDS011;19751;40.274;18.268;2023-04-30T11:58:48;2.13;;;1.75;;
33403;SDS011;19751;40.274;18.268;2023-04-30T12:01:14;4.55;;;1.98;;
33403;SDS011;19751;40.274;18.268;2023-04-30T12:03:44;3.38;;;1.77;;
33403;SDS011;19751;40.274;18.268;2023-04-30T12:06:21;5.00;;;1.52;;
33403;SDS011;19751;40.274;18.268;2023-04-30T12:08:48;4.40;;;1.80;;
33403;SDS011;19751;40.274;18.268;2023-04-30T12:11:20;2.30;;;1.70;;
33403;SDS011;19751;40.274;18.268;2023-04-30T12:14:05;2.13;;;1.92;;
33403;SDS011;19751;40.274;18.268;2023-04-30T12:16:41;2.65;;;1.42;;
33403;SDS011;19751;40.274;18.268;2023-04-30T12:19:09;2.40;;;1.48;;
33403;SDS011;19751;40.274;18.268;2023-04-30T12:21:37;4.45;;;1.92;;
33403;SDS011;19751;40.274;18.268;2023-04-30T12:24:04;5.28;;;1.55;;
33403;SDS011;19751;40.274;18.268;2023-04-30T12:26:34;2.25;;;1.38;;
33403;SDS011;19751;40.274;18.268;2023-04-30T12:29:11;2.17;;;1.48;;
33403;SDS011;19751;40.274;18.268;2023-04-30T12:31:39;2.80;;;1.65;;
33403;SDS011;19751;40.274;18.268;2023-04-30T12:34:08;3.55;;;1.50;;
33403;SDS011;19751;40.274;18.268;2023-04-30T12:36:37;3.00;;;1.70;;
33403;SDS011;19751;40.274;18.268;2023-04-30T12:39:11;3.28;;;1.38;;
33403;SDS011;19751;40.274;18.268;2023-04-30T12:41:43;2.50;;;1.73;;
33403;SDS011;19751;40.274;18.268;2023-04-30T12:44:17;4.50;;;1.77;;
33403;SDS011;19751;40.274;18.268;2023-04-30T12:46:45;2.03;;;1.77;;
33403;SDS011;19751;40.274;18.268;2023-04-30T12:49:12;2.55;;;1.30;;
33403;SDS011;19751;40.274;18.268;2023-04-30T12:51:47;7.35;;;1.83;;
33403;SDS011;19751;40.274;18.268;2023-04-30T12:54:13;1.42;;;1.23;;
33403;SDS011;19751;40.274;18.268;2023-04-30T12:56:38;1.75;;;1.33;;
33403;SDS011;19751;40.274;18.268;2023-04-30T12:59:20;3.83;;;1.60;;
33403;SDS011;19751;40.274;18.268;2023-04-30T13:01:45;4.15;;;1.40;;
33403;SDS011;19751;40.274;18.268;2023-04-30T13:04:11;2.75;;;1.55;;
33403;SDS011;19751;40.274;18.268;2023-04-30T13:06:37;6.25;;;1.90;;
33403;SDS011;19751;40.274;18.268;2023-04-30T13:09:02;3.22;;;1.70;;
33403;SDS011;19751;40.274;18.268;2023-04-30T13:11:28;6.32;;;2.17;;
33403;SDS011;19751;40.274;18.268;2023-04-30T13:13:54;4.07;;;1.65;;
33403;SDS011;19751;40.274;18.268;2023-04-30T13:16:19;1.40;;;1.30;;
33403;SDS011;19751;40.274;18.268;2023-04-30T13:18:45;2.13;;;1.60;;
33403;SDS011;19751;40.274;18.268;2023-04-30T13:21:10;3.33;;;1.63;;
33403;SDS011;19751;40.274;18.268;2023-04-30T13:23:36;1.70;;;1.48;;
33403;SDS011;19751;40.274;18.268;2023-04-30T13:26:03;1.80;;;1.35;;
33403;SDS011;19751;40.274;18.268;2023-04-30T13:28:29;2.88;;;1.83;;
33403;SDS011;19751;40.274;18.268;2023-04-30T13:30:54;3.33;;;2.40;;
33403;SDS011;19751;40.274;18.268;2023-04-30T13:33:21;3.67;;;1.92;;
33403;SDS011;19751;40.274;18.268;2023-04-30T13:35:46;2.88;;;1.67;;
33403;SDS011;19751;40.274;18.268;2023-04-30T13:38:13;2.30;;;1.67;;
33403;SDS011;19751;40.274;18.268;2023-04-30T13:40:39;3.53;;;1.60;;
33403;SDS011;19751;40.274;18.268;2023-04-30T13:43:05;2.78;;;1.52;;
33403;SDS011;19751;40.274;18.268;2023-04-30T13:45:31;6.25;;;2.05;;
33403;SDS011;19751;40.274;18.268;2023-04-30T13:47:56;4.38;;;1.98;;
33403;SDS011;19751;40.274;18.268;2023-04-30T13:50:22;3.33;;;2.50;;
33403;SDS011;19751;40.274;18.268;2023-04-30T13:52:47;5.38;;;3.55;;
33403;SDS011;19751;40.274;18.268;2023-04-30T13:55:13;4.63;;;1.90;;
33403;SDS011;19751;40.274;18.268;2023-04-30T13:57:39;7.80;;;2.45;;
33403;SDS011;19751;40.274;18.268;2023-04-30T14:00:05;2.60;;;1.67;;
33403;SDS011;19751;40.274;18.268;2023-04-30T14:02:31;3.72;;;1.80;;
33403;SDS011;19751;40.274;18.268;2023-04-30T14:04:57;3.35;;;1.85;;
33403;SDS011;19751;40.274;18.268;2023-04-30T14:07:23;2.53;;;1.40;;
33403;SDS011;19751;40.274;18.268;2023-04-30T14:09:49;2.42;;;1.88;;
33403;SDS011;19751;40.274;18.268;2023-04-30T14:12:14;3.65;;;1.83;;
33403;SDS011;19751;40.274;18.268;2023-04-30T14:14:40;3.00;;;2.10;;
33403;SDS011;19751;40.274;18.268;2023-04-30T14:17:06;3.88;;;1.77;;
33403;SDS011;19751;40.274;18.268;2023-04-30T14:19:32;2.53;;;1.70;;
33403;SDS011;19751;40.274;18.268;2023-04-30T14:21:57;4.18;;;2.03;;
33403;SDS011;19751;40.274;18.268;2023-04-30T14:24:23;2.30;;;1.80;;
33403;SDS011;19751;40.274;18.268;2023-04-30T14:26:50;2.85;;;1.80;;
33403;SDS011;19751;40.274;18.268;2023-04-30T14:29:15;3.45;;;1.85;;
33403;SDS011;19751;40.274;18.268;2023-04-30T14:31:42;5.38;;;1.60;;
33403;SDS011;19751;40.274;18.268;2023-04-30T14:34:08;3.20;;;1.60;;
33403;SDS011;19751;40.274;18.268;2023-04-30T14:36:35;6.90;;;2.05;;
33403;SDS011;19751;40.274;18.268;2023-04-30T14:39:00;2.22;;;1.88;;
33403;SDS011;19751;40.274;18.268;2023-04-30T14:41:32;1.58;;;1.48;;
33403;SDS011;19751;40.274;18.268;2023-04-30T14:43:58;2.40;;;1.77;;
33403;SDS011;19751;40.274;18.268;2023-04-30T14:46:24;2.10;;;1.50;;
33403;SDS011;19751;40.274;18.268;2023-04-30T14:48:50;2.45;;;1.95;;
33403;SDS011;19751;40.274;18.268;2023-04-30T14:51:15;3.25;;;1.70;;
33403;SDS011;19751;40.274;18.268;2023-04-30T14:53:41;5.47;;;2.13;;
33403;SDS011;19751;40.274;18.268;2023-04-30T14:56:07;2.83;;;2.13;;
33403;SDS011;19751;40.274;18.268;2023-04-30T14:58:32;2.17;;;1.33;;
33403;SDS011;19751;40.274;18.268;2023-04-30T15:00:58;2.42;;;1.48;;
33403;SDS011;19751;40.274;18.268;2023-04-30T15:03:24;4.50;;;1.70;;
33403;SDS011;19751;40.274;18.268;2023-04-30T15:05:50;3.92;;;1.75;;
33403;SDS011;19751;40.274;18.268;2023-04-30T15:08:15;3.65;;;1.83;;